Time;durP1;ratioP1;P1;durP2;ratioP2;P2;SDS_P1;SDS_P2;PMS_P1;PMS_P2;Temp;Humidity;BMP_temperature;BMP_pressure;BME280_temperature;BME280_humidity;BME280_pressure;Samples;Min_cycle;Max_cycle;Signal;HPM_P1;HPM_P2
2023/07/21 07:10:50;;;;;;;6.72;5.47;;;16.90;99.90;;;;;;5091472;27;20542;-75
2023/07/21 07:13:15;;;;;;;6.68;5.10;;;16.70;99.90;;;;;;5089765;28;20177;-75
2023/07/21 07:15:41;;;;;;;5.20;4.80;;;16.90;99.90;;;;;;5091252;28;20197;-76
2023/07/21 07:18:11;;;;;;;5.07;4.57;;;17.20;99.90;;;;;;5090748;28;20209;-76
2023/07/21 07:20:38;;;;;;;5.35;4.85;;;17.30;99.90;;;;;;5090656;28;20224;-75
2023/07/21 07:23:03;;;;;;;5.60;5.07;;;17.50;99.90;;;;;;5090531;28;20218;-75
2023/07/21 07:25:29;;;;;;;5.85;5.07;;;17.50;99.90;;;;;;5089385;28;20172;-76
2023/07/21 07:27:55;;;;;;;5.45;4.90;;;17.40;99.90;;;;;;5089094;28;20212;-76
2023/07/21 07:30:21;;;;;;;5.55;4.90;;;17.00;99.90;;;;;;5089728;28;20177;-76
2023/07/21 07:32:46;;;;;;;5.35;4.95;;;17.20;99.90;;;;;;5089175;28;20173;-76
2023/07/21 07:35:12;;;;;;;5.35;4.95;;;17.40;99.90;;;;;;5089202;28;20188;-76
2023/07/21 07:37:38;;;;;;;5.63;5.03;;;17.40;99.90;;;;;;5089217;28;20230;-76
2023/07/21 07:40:05;;;;;;;5.95;5.13;;;17.30;99.90;;;;;;5089466;28;20231;-79
2023/07/21 07:42:32;;;;;;;5.40;5.00;;;17.20;99.90;;;;;;5090169;28;20173;-76
2023/07/21 07:44:59;;;;;;;5.13;4.72;;;17.20;99.90;;;;;;5090373;28;20688;-75
2023/07/21 07:47:25;;;;;;;5.75;4.82;;;17.30;99.90;;;;;;5089038;28;20234;-75
2023/07/21 07:49:51;;;;;;;4.78;4.38;;;17.40;99.90;;;;;;5089055;28;20256;-75
2023/07/21 07:52:18;;;;;;;6.22;4.75;;;17.60;99.90;;;;;;5089491;28;20176;-76
2023/07/21 07:54:44;;;;;;;4.72;4.30;;;17.80;99.90;;;;;;5089294;28;20184;-76
2023/07/21 07:57:10;;;;;;;5.00;4.50;;;18.10;99.90;;;;;;5088656;28;20570;-76
2023/07/21 07:59:35;;;;;;;4.60;4.20;;;18.40;99.90;;;;;;5088878;28;20201;-76
2023/07/21 08:02:01;;;;;;;4.10;3.80;;;18.70;99.90;;;;;;5089101;28;20181;-76
2023/07/21 08:04:26;;;;;;;4.10;3.75;;;19.00;99.90;;;;;;5088864;28;20169;-76
2023/07/21 08:06:52;;;;;;;5.18;3.50;;;19.30;99.90;;;;;;5088815;28;20197;-76
2023/07/21 08:09:18;;;;;;;4.05;3.63;;;19.40;99.90;;;;;;5088789;28;20200;-76
2023/07/21 08:11:43;;;;;;;3.42;3.20;;;19.70;99.90;;;;;;5088957;28;20189;-76
2023/07/21 08:14:09;;;;;;;3.85;3.45;;;19.80;99.90;;;;;;5090183;28;20180;-76
2023/07/21 08:16:36;;;;;;;3.50;3.20;;;20.00;99.90;;;;;;5088846;28;20193;-76
2023/07/21 08:19:02;;;;;;;3.47;3.28;;;20.30;99.90;;;;;;5088440;28;20284;-76
2023/07/21 08:21:28;;;;;;;4.30;3.55;;;20.60;99.90;;;;;;5079041;28;20173;-76
2023/07/21 08:23:54;;;;;;;3.58;3.35;;;20.90;99.90;;;;;;5074948;28;20180;-76
2023/07/21 08:26:20;;;;;;;3.28;3.03;;;21.00;99.90;;;;;;5075266;28;20334;-76
2023/07/21 08:28:46;;;;;;;3.70;3.40;;;21.20;99.90;;;;;;5075726;28;20264;-76
2023/07/21 08:31:12;;;;;;;4.07;3.10;;;21.40;99.90;;;;;;5074642;28;20268;-76
2023/07/21 08:33:38;;;;;;;3.30;3.00;;;21.50;99.90;;;;;;5075997;28;20173;-76
2023/07/21 08:36:05;;;;;;;3.38;3.08;;;21.50;99.90;;;;;;5075203;28;20296;-76
2023/07/21 08:38:34;;;;;;;3.60;2.55;;;21.30;99.90;;;;;;5074577;28;20177;-76
2023/07/21 08:41:05;;;;;;;2.75;2.55;;;21.30;99.90;;;;;;5074587;28;20212;-76
2023/07/21 08:43:31;;;;;;;3.17;2.72;;;21.40;99.90;;;;;;5074632;28;20223;-76
2023/07/21 08:46:01;;;;;;;2.78;2.58;;;21.40;99.90;;;;;;5074724;28;20193;-76
2023/07/21 08:48:28;;;;;;;2.70;2.50;;;21.30;99.90;;;;;;5074578;28;20176;-76
2023/07/21 08:50:55;;;;;;;3.05;2.75;;;21.30;99.90;;;;;;5074520;28;20173;-76
2023/07/21 08:53:22;;;;;;;3.50;2.72;;;21.30;99.90;;;;;;5075242;28;20179;-77
2023/07/21 08:55:48;;;;;;;3.20;2.47;;;20.60;99.90;;;;;;5074413;28;20228;-75
2023/07/21 08:58:14;;;;;;;2.40;2.20;;;20.20;99.90;;;;;;5074139;28;20228;-76
2023/07/21 09:00:40;;;;;;;2.63;2.42;;;20.70;99.90;;;;;;5074177;28;20212;-76
2023/07/21 09:03:06;;;;;;;5.25;2.30;;;21.30;99.90;;;;;;5072537;28;20264;-76
2023/07/21 09:05:31;;;;;;;2.40;2.30;;;21.70;98.60;;;;;;5072722;28;20269;-76
2023/07/21 09:07:57;;;;;;;2.60;2.40;;;21.80;99.90;;;;;;5074232;28;20177;-76
2023/07/21 09:10:31;;;;;;;2.25;2.00;;;21.80;99.60;;;;;;5074233;28;20201;-76
2023/07/21 09:12:57;;;;;;;2.47;2.38;;;22.30;99.80;;;;;;5074565;28;20166;-76
2023/07/21 09:15:23;;;;;;;2.60;2.40;;;22.70;98.30;;;;;;5074596;28;20189;-76
2023/07/21 09:17:49;;;;;;;2.25;2.10;;;22.90;98.70;;;;;;5074208;28;20219;-76
2023/07/21 09:20:14;;;;;;;2.80;2.15;;;23.00;96.20;;;;;;5074364;28;20233;-76
2023/07/21 09:22:40;;;;;;;2.15;2.00;;;22.90;94.20;;;;;;5071727;28;20209;-76
2023/07/21 09:25:08;;;;;;;2.30;2.10;;;23.00;93.10;;;;;;5063718;28;20186;-76
2023/07/21 09:27:38;;;;;;;7.95;2.10;;;23.00;92.10;;;;;;5068880;28;20231;-76
2023/07/21 09:30:04;;;;;;;3.47;1.85;;;23.10;90.60;;;;;;5066818;28;20279;-76
2023/07/21 09:32:39;;;;;;;3.65;2.00;;;23.00;89.50;;;;;;5072891;28;20213;-76
2023/07/21 09:35:05;;;;;;;1.98;1.80;;;23.20;90.40;;;;;;5068324;28;20184;-76
2023/07/21 09:37:33;;;;;;;2.00;1.90;;;23.10;86.90;;;;;;5073503;28;20284;-76
2023/07/21 09:40:10;;;;;;;6.95;1.90;;;23.10;89.40;;;;;;5071486;28;20201;-76
2023/07/21 09:42:38;;;;;;;3.22;1.77;;;23.40;91.00;;;;;;5063127;28;20557;-76
2023/07/21 09:45:04;;;;;;;2.70;1.98;;;23.50;89.90;;;;;;5073298;28;20181;-76
2023/07/21 09:47:30;;;;;;;3.42;1.92;;;23.60;90.10;;;;;;5073827;28;20551;-76
2023/07/21 09:49:58;;;;;;;2.00;1.90;;;23.60;90.10;;;;;;5074917;28;20150;-76
2023/07/21 09:52:26;;;;;;;3.05;2.28;;;23.60;88.00;;;;;;5054865;28;20564;-76
2023/07/21 09:55:09;;;;;;;3.38;2.10;;;23.10;88.50;;;;;;5066787;28;20209;-77
2023/07/21 09:57:47;;;;;;;2.05;1.90;;;23.10;90.10;;;;;;5073056;28;20276;-76
2023/07/21 10:00:14;;;;;;;4.07;2.17;;;23.10;88.70;;;;;;5073843;28;20212;-76
2023/07/21 10:02:45;;;;;;;2.00;1.90;;;22.90;89.50;;;;;;5074245;28;20671;-76
2023/07/21 10:05:11;;;;;;;1.90;1.80;;;22.60;90.60;;;;;;5072170;28;20182;-76
2023/07/21 10:07:39;;;;;;;1.90;1.80;;;22.30;89.90;;;;;;5061389;28;20685;-76
2023/07/21 10:10:06;;;;;;;2.30;2.10;;;22.20;92.00;;;;;;5073295;28;20283;-76
2023/07/21 10:12:50;;;;;;;3.63;1.90;;;22.00;91.60;;;;;;5064526;28;20181;-77
2023/07/21 10:15:30;;;;;;;2.03;1.92;;;22.20;91.10;;;;;;5070078;28;20223;-76
2023/07/21 10:18:02;;;;;;;3.50;2.13;;;22.40;91.20;;;;;;5073077;28;20624;-76
2023/07/21 10:20:45;;;;;;;2.00;1.90;;;22.60;89.80;;;;;;5073030;28;20201;-76
2023/07/21 10:23:15;;;;;;;2.38;2.00;;;21.80;90.00;;;;;;5059180;28;20209;-76
2023/07/21 10:25:56;;;;;;;11.32;2.60;;;21.70;91.10;;;;;;5064295;28;20199;-76
2023/07/21 10:28:43;;;;;;;45.45;6.50;;;21.70;91.90;;;;;;5052512;28;20201;-76
2023/07/21 10:31:21;;;;;;;6.32;3.00;;;21.60;93.20;;;;;;5053661;28;20174;-76
2023/07/21 10:34:05;;;;;;;8.93;2.40;;;22.00;91.70;;;;;;5052494;28;20182;-76
2023/07/21 10:36:53;;;;;;;7.10;2.53;;;22.10;91.10;;;;;;5053649;28;20225;-76
2023/07/21 10:39:21;;;;;;;5.05;2.05;;;22.10;91.00;;;;;;5052331;28;20241;-76
2023/07/21 10:41:48;;;;;;;2.20;2.00;;;22.30;89.60;;;;;;5052368;28;20185;-76
2023/07/21 10:44:14;;;;;;;3.40;2.42;;;22.20;89.00;;;;;;5057822;28;20550;-76
2023/07/21 10:46:42;;;;;;;2.30;2.10;;;22.00;88.20;;;;;;5071708;28;20197;-76
2023/07/21 10:49:09;;;;;;;5.07;2.67;;;22.10;90.00;;;;;;5071422;28;20185;-76
2023/07/21 10:51:36;;;;;;;6.28;2.30;;;22.30;90.30;;;;;;5072154;28;20746;-76
2023/07/21 10:54:03;;;;;;;54.10;9.13;;;22.70;87.40;;;;;;5073124;28;20182;-76
2023/07/21 10:56:29;;;;;;;123.65;16.88;;;22.80;87.10;;;;;;5072083;28;20227;-76
2023/07/21 10:58:55;;;;;;;5.35;2.70;;;23.20;89.80;;;;;;5072084;28;20209;-76
2023/07/21 11:01:21;;;;;;;4.20;2.15;;;23.50;83.40;;;;;;5072049;28;20231;-76
2023/07/21 11:03:48;;;;;;;3.13;2.13;;;23.80;80.50;;;;;;5070743;28;20220;-76
2023/07/21 11:06:17;;;;;;;4.90;2.30;;;24.10;80.70;;;;;;5062507;28;20300;-77
2023/07/21 11:08:43;;;;;;;4.70;2.10;;;24.30;78.00;;;;;;5059297;28;20181;-76
2023/07/21 11:11:09;;;;;;;3.08;2.08;;;24.30;76.80;;;;;;5068254;28;20189;-76
2023/07/21 11:13:38;;;;;;;2.30;2.10;;;24.40;78.20;;;;;;5072180;28;20261;-76
2023/07/21 11:16:03;;;;;;;2.17;1.95;;;24.50;77.00;;;;;;5072477;28;20244;-76
2023/07/21 11:18:29;;;;;;;2.22;2.03;;;24.60;76.10;;;;;;5068595;28;20632;-76
2023/07/21 11:20:55;;;;;;;2.00;1.90;;;24.60;76.60;;;;;;5070173;28;20216;-76
2023/07/21 11:23:26;;;;;;;1.77;1.70;;;24.30;78.10;;;;;;5070994;28;20185;-76
2023/07/21 11:26:18;;;;;;;2.17;2.00;;;24.00;77.90;;;;;;5071101;28;20201;-76
2023/07/21 11:28:44;;;;;;;2.95;2.00;;;23.90;79.80;;;;;;5067428;28;20227;-76
2023/07/21 11:31:12;;;;;;;2.60;2.40;;;23.80;77.60;;;;;;5071237;28;20170;-76
2023/07/21 11:33:45;;;;;;;2.88;1.83;;;23.50;78.50;;;;;;5071059;28;20178;-76
2023/07/21 11:36:21;;;;;;;4.43;2.00;;;23.40;80.10;;;;;;5068830;28;20213;-76
2023/07/21 11:39:04;;;;;;;2.75;2.35;;;23.20;81.40;;;;;;5069132;28;20212;-76
2023/07/21 11:41:39;;;;;;;3.95;2.15;;;23.10;84.10;;;;;;5065663;28;20177;-76
2023/07/21 11:44:10;;;;;;;15.43;2.85;;;23.00;84.60;;;;;;5052800;28;20190;-76
2023/07/21 11:46:39;;;;;;;7.55;2.40;;;22.80;85.60;;;;;;5056450;28;21233;-76
2023/07/21 11:49:10;;;;;;;2.00;1.90;;;22.50;86.80;;;;;;5055192;28;20194;-76
2023/07/21 11:51:46;;;;;;;2.45;2.25;;;22.40;86.60;;;;;;5052932;28;20174;-76
2023/07/21 11:54:23;;;;;;;3.17;2.17;;;22.40;87.90;;;;;;5052064;28;20182;-76
2023/07/21 11:56:57;;;;;;;3.33;2.00;;;22.50;87.00;;;;;;5053933;28;20225;-76
2023/07/21 11:59:24;;;;;;;2.78;2.20;;;22.70;86.40;;;;;;5056109;28;20239;-76
2023/07/21 12:01:50;;;;;;;2.25;1.90;;;23.10;85.40;;;;;;5055905;28;20185;-76
2023/07/21 12:04:25;;;;;;;2.70;1.98;;;23.50;83.00;;;;;;5055585;28;20182;-77
2023/07/21 12:06:52;;;;;;;2.47;2.25;;;23.90;80.90;;;;;;5055613;28;20200;-77
2023/07/21 12:09:19;;;;;;;2.10;2.00;;;24.00;80.00;;;;;;5055443;28;20648;-76
2023/07/21 12:12:14;;;;;;;4.85;2.10;;;24.40;79.30;;;;;;5055547;28;20182;-76
2023/07/21 12:14:39;;;;;;;2.00;1.90;;;24.40;72.80;;;;;;5056366;28;20228;-76
2023/07/21 12:21:18;;;;;;;2.00;1.90;;;24.40;68.30;;;;;;5056415;28;20205;-77
2023/07/21 12:23:44;;;;;;;2.42;1.80;;;24.20;67.80;;;;;;5056525;28;20155;-76
2023/07/21 12:26:10;;;;;;;10.27;2.70;;;24.10;68.60;;;;;;5054820;28;20198;-77
2023/07/21 12:28:36;;;;;;;2.33;1.90;;;24.20;69.40;;;;;;5055112;28;20183;-77
2023/07/21 12:31:34;;;;;;;1.98;1.77;;;24.30;70.20;;;;;;5056131;28;20189;-76
2023/07/21 12:34:00;;;;;;;4.88;2.05;;;24.30;65.20;;;;;;5055953;28;20190;-77
2023/07/21 12:36:25;;;;;;;2.10;2.00;;;24.50;67.10;;;;;;5055220;28;20197;-77
2023/07/21 12:38:51;;;;;;;2.00;1.90;;;24.70;65.20;;;;;;5054896;28;20205;-77
2023/07/21 12:41:16;;;;;;;1.90;1.80;;;24.70;65.60;;;;;;5054687;28;20257;-77
2023/07/21 12:43:42;;;;;;;4.00;2.00;;;24.60;63.90;;;;;;5055893;28;20547;-77
2023/07/21 12:46:11;;;;;;;1.90;1.80;;;24.20;64.90;;;;;;5054807;28;20197;-77
2023/07/21 12:48:37;;;;;;;2.03;1.90;;;24.00;65.90;;;;;;5054545;28;20256;-77
2023/07/21 12:51:02;;;;;;;1.90;1.80;;;23.90;66.20;;;;;;5054604;28;20206;-77
2023/07/21 12:53:28;;;;;;;1.80;1.70;;;23.70;65.90;;;;;;5054425;28;20636;-77
2023/07/21 12:55:54;;;;;;;2.20;2.00;;;23.30;66.20;;;;;;5055495;28;20277;-77
2023/07/21 12:58:21;;;;;;;2.75;2.00;;;23.10;65.70;;;;;;5055378;28;20190;-77
2023/07/21 13:00:47;;;;;;;2.00;1.60;;;22.90;67.00;;;;;;5055018;28;20209;-77
2023/07/21 13:03:13;;;;;;;1.77;1.67;;;22.90;70.00;;;;;;5054175;28;20182;-77
2023/07/21 13:05:39;;;;;;;2.38;1.90;;;22.70;67.70;;;;;;5054060;28;20174;-77
2023/07/21 13:08:05;;;;;;;1.80;1.70;;;22.60;68.50;;;;;;5054102;28;20212;-77
2023/07/21 13:10:34;;;;;;;2.33;2.20;;;22.30;69.10;;;;;;5053933;28;20224;-77
2023/07/21 13:13:03;;;;;;;4.50;2.13;;;22.10;70.50;;;;;;5053962;28;20706;-77
2023/07/21 13:15:29;;;;;;;1.95;1.85;;;22.00;72.40;;;;;;5053942;28;20664;-77
2023/07/21 13:17:54;;;;;;;1.88;1.77;;;22.00;72.00;;;;;;5053947;28;20188;-77
2023/07/21 13:20:20;;;;;;;1.80;1.70;;;21.90;72.20;;;;;;5053900;28;20668;-77
2023/07/21 13:22:45;;;;;;;2.70;2.20;;;21.90;73.30;;;;;;5054249;28;20177;-77
2023/07/21 13:25:12;;;;;;;2.65;1.95;;;21.70;73.80;;;;;;5054209;28;20181;-77
2023/07/21 13:27:38;;;;;;;2.00;1.90;;;21.40;74.90;;;;;;5054944;28;20239;-77
2023/07/21 13:30:05;;;;;;;4.68;2.35;;;21.20;77.60;;;;;;5055034;28;20182;-77
2023/07/21 13:32:32;;;;;;;2.88;2.25;;;20.90;85.80;;;;;;5054994;28;20154;-77
2023/07/21 13:34:57;;;;;;;2.50;2.30;;;20.80;90.10;;;;;;5054051;28;20519;-77
2023/07/21 13:37:24;;;;;;;2.25;2.15;;;20.50;91.30;;;;;;5053818;28;20205;-77
2023/07/21 13:39:49;;;;;;;2.53;2.33;;;20.40;93.00;;;;;;5053502;28;20210;-77
2023/07/21 13:42:15;;;;;;;4.60;2.50;;;20.30;93.30;;;;;;5054398;28;20575;-77
2023/07/21 13:44:40;;;;;;;2.42;2.22;;;20.20;93.80;;;;;;5054786;28;20170;-77
2023/07/21 13:47:06;;;;;;;2.45;2.25;;;20.30;94.10;;;;;;5054175;28;20194;-77
2023/07/21 13:49:31;;;;;;;2.53;2.33;;;20.30;94.90;;;;;;5053364;28;20269;-77
2023/07/21 13:51:58;;;;;;;2.53;2.33;;;20.40;95.10;;;;;;5053365;28;20186;-77
2023/07/21 13:54:24;;;;;;;2.67;2.47;;;20.60;95.40;;;;;;5054303;28;20227;-77
2023/07/21 13:56:49;;;;;;;3.70;2.97;;;20.60;96.80;;;;;;5053173;28;20198;-77
2023/07/21 13:59:15;;;;;;;2.03;1.92;;;20.50;99.90;;;;;;5053278;28;20209;-77
2023/07/21 14:01:41;;;;;;;4.05;2.63;;;20.40;99.90;;;;;;5053303;28;20178;-77
2023/07/21 14:04:07;;;;;;;3.67;2.10;;;20.20;99.90;;;;;;5053331;28;20193;-78
2023/07/21 14:06:33;;;;;;;2.60;2.40;;;20.10;99.90;;;;;;5053239;28;20225;-77
2023/07/21 14:08:59;;;;;;;2.40;2.20;;;20.00;99.90;;;;;;5053769;28;20189;-77
2023/07/21 14:11:24;;;;;;;2.90;2.60;;;20.00;99.90;;;;;;5054382;28;20182;-77
2023/07/21 14:13:52;;;;;;;2.67;2.47;;;19.90;99.90;;;;;;5052927;28;20601;-77
2023/07/21 14:16:18;;;;;;;2.78;2.38;;;20.00;99.90;;;;;;5052770;28;20221;-77
2023/07/21 14:18:43;;;;;;;3.20;2.90;;;20.00;99.90;;;;;;5053444;28;20623;-77
2023/07/21 14:21:09;;;;;;;3.05;2.60;;;19.90;99.90;;;;;;5052778;28;20268;-77
2023/07/21 14:23:34;;;;;;;4.05;2.70;;;19.70;99.90;;;;;;5052952;28;20175;-77
2023/07/21 14:26:00;;;;;;;4.05;2.70;;;19.80;99.90;;;;;;5053899;28;20752;-77
2023/07/21 14:28:26;;;;;;;4.28;2.60;;;20.00;99.90;;;;;;5072723;28;20173;-77
2023/07/21 14:30:56;;;;;;;4.03;2.80;;;20.10;99.90;;;;;;5072512;28;20255;-77
2023/07/21 14:33:25;;;;;;;2.70;2.50;;;20.10;99.90;;;;;;5073037;28;20674;-77
2023/07/21 14:35:56;;;;;;;3.30;2.70;;;20.20;99.90;;;;;;5073110;28;20211;-77
2023/07/21 14:38:22;;;;;;;3.00;2.75;;;20.20;99.90;;;;;;5072699;28;20203;-77
2023/07/21 14:40:48;;;;;;;4.72;2.63;;;20.30;99.90;;;;;;5073904;28;20735;-81
2023/07/21 14:43:14;;;;;;;6.50;2.80;;;20.20;99.90;;;;;;5073590;28;20181;-77
2023/07/21 14:45:39;;;;;;;5.68;3.00;;;20.10;99.90;;;;;;5072686;28;20264;-77
2023/07/21 14:48:05;;;;;;;3.05;2.78;;;19.90;99.90;;;;;;5072463;28;20174;-77
2023/07/21 14:51:19;;;;;;;5.80;2.97;;;19.80;99.90;;;;;;5072564;28;20188;-77
2023/07/21 14:53:44;;;;;;;6.85;3.30;;;19.50;99.90;;;;;;5072598;28;20589;-77
2023/07/21 14:56:10;;;;;;;6.72;2.97;;;19.30;99.90;;;;;;5073198;28;20199;-77
2023/07/21 14:58:35;;;;;;;2.90;2.60;;;19.10;99.90;;;;;;5073454;28;20569;-77
2023/07/21 15:01:01;;;;;;;3.38;2.60;;;19.00;99.90;;;;;;5072760;28;20667;-77
2023/07/21 15:03:44;;;;;;;4.97;2.67;;;18.90;99.90;;;;;;5072256;28;20173;-77
2023/07/21 15:06:09;;;;;;;4.47;2.80;;;18.80;99.90;;;;;;5072730;28;20563;-77
2023/07/21 15:08:35;;;;;;;6.22;3.15;;;18.70;99.90;;;;;;5073357;28;20174;-77
2023/07/21 15:11:00;;;;;;;5.00;3.15;;;18.60;99.90;;;;;;5072333;28;20242;-77
2023/07/21 15:13:26;;;;;;;3.63;2.42;;;18.70;99.90;;;;;;5072153;28;20597;-77
2023/07/21 15:15:51;;;;;;;3.70;2.65;;;18.90;99.90;;;;;;5073813;28;20247;-77
2023/07/21 15:18:17;;;;;;;4.47;2.97;;;19.00;99.90;;;;;;5072815;28;20188;-77
2023/07/21 15:20:44;;;;;;;3.30;3.00;;;18.90;99.90;;;;;;5072059;28;20205;-77
2023/07/21 15:23:10;;;;;;;6.15;3.20;;;18.90;99.90;;;;;;5072506;28;20662;-77
2023/07/21 15:25:36;;;;;;;4.63;3.20;;;18.90;99.90;;;;;;5072112;28;20174;-77
2023/07/21 15:28:03;;;;;;;3.25;3.05;;;18.90;99.90;;;;;;5073270;28;20173;-77
2023/07/21 15:30:29;;;;;;;4.57;3.05;;;18.90;99.90;;;;;;5072587;28;20182;-77
2023/07/21 15:33:27;;;;;;;5.45;2.95;;;19.10;99.90;;;;;;5076058;28;20169;-77
2023/07/21 15:36:24;;;;;;;3.30;3.00;;;19.10;99.90;;;;;;5076407;28;20233;-77
2023/07/21 15:38:50;;;;;;;3.47;3.15;;;19.00;99.90;;;;;;5074362;28;20173;-77
2023/07/21 15:41:16;;;;;;;5.38;3.10;;;19.00;99.90;;;;;;5075985;28;20185;-77
2023/07/21 15:43:42;;;;;;;6.63;2.97;;;19.00;99.90;;;;;;5076655;28;20185;-77
2023/07/21 15:46:07;;;;;;;3.97;2.70;;;19.10;99.90;;;;;;5071474;28;20202;-77
2023/07/21 15:48:33;;;;;;;3.00;2.70;;;19.20;99.90;;;;;;5064366;28;20206;-77
2023/07/21 15:50:59;;;;;;;3.38;2.90;;;19.20;99.90;;;;;;5066212;28;20209;-77
2023/07/21 15:53:27;;;;;;;3.10;2.65;;;19.20;99.90;;;;;;5056060;28;20232;-77
2023/07/21 15:55:53;;;;;;;3.03;2.80;;;19.10;99.90;;;;;;5056191;28;20205;-77
2023/07/21 15:58:23;;;;;;;4.63;3.05;;;19.10;99.90;;;;;;5062098;28;20177;-77
2023/07/21 16:01:18;;;;;;;2.95;2.67;;;18.90;99.90;;;;;;5070047;28;20226;-77
2023/07/21 16:04:20;;;;;;;4.68;3.10;;;18.80;99.90;;;;;;5065937;28;20266;-77
2023/07/21 16:06:46;;;;;;;5.72;2.80;;;18.80;99.90;;;;;;5057580;28;20229;-77
2023/07/21 16:09:12;;;;;;;5.82;4.30;;;18.80;99.90;;;;;;5074980;28;20194;-76
2023/07/21 16:11:38;;;;;;;5.68;4.32;;;18.80;99.90;;;;;;5070147;28;20181;-76
2023/07/21 16:14:06;;;;;;;5.90;4.20;;;18.90;99.90;;;;;;5070011;28;20535;-77
2023/07/21 16:16:32;;;;;;;3.53;3.22;;;18.90;99.90;;;;;;5067048;28;20216;-77
2023/07/21 16:22:38;;;;;;;6.25;3.83;;;18.90;99.90;;;;;;5057514;28;20201;-77
2023/07/21 16:25:13;;;;;;;4.35;3.95;;;19.00;99.90;;;;;;5073563;28;20182;-77
2023/07/21 16:31:00;;;;;;;12.20;9.05;;;18.90;99.90;;;;;;5057125;28;20174;-77
2023/07/21 16:33:26;;;;;;;12.45;11.20;;;18.90;99.90;;;;;;5054989;28;20178;-77
2023/07/21 16:35:52;;;;;;;10.30;8.63;;;18.90;99.90;;;;;;5055046;28;20243;-77
2023/07/21 16:38:25;;;;;;;6.97;5.10;;;18.80;99.90;;;;;;5054913;28;20590;-77
2023/07/21 16:40:51;;;;;;;6.50;4.80;;;18.90;99.90;;;;;;5054773;28;20197;-77
2023/07/21 16:43:29;;;;;;;7.35;5.03;;;18.90;99.90;;;;;;5060086;28;20182;-77
2023/07/21 16:45:54;;;;;;;6.53;5.57;;;19.00;99.90;;;;;;5060479;28;20675;-77
2023/07/21 16:48:20;;;;;;;5.72;5.20;;;19.00;99.90;;;;;;5074992;28;20296;-77
2023/07/21 16:50:45;;;;;;;6.88;4.20;;;19.10;99.90;;;;;;5074063;28;20593;-76
2023/07/21 16:53:30;;;;;;;7.00;6.30;;;19.00;99.90;;;;;;5056425;28;20192;-76
2023/07/21 16:55:58;;;;;;;13.93;12.23;;;19.00;99.90;;;;;;5059514;28;20196;-77
2023/07/21 16:58:23;;;;;;;7.93;7.13;;;18.90;99.90;;;;;;5074325;28;20186;-77
2023/07/21 17:00:49;;;;;;;21.92;19.80;;;18.80;99.90;;;;;;5073942;28;20315;-77
2023/07/21 17:03:29;;;;;;;41.88;38.17;;;18.70;99.90;;;;;;5056212;28;20174;-76
2023/07/21 17:05:54;;;;;;;31.77;29.02;;;18.60;99.90;;;;;;5054348;28;20698;-76
2023/07/21 17:08:20;;;;;;;32.35;29.20;;;18.50;99.90;;;;;;5054106;28;20273;-76
2023/07/21 17:10:45;;;;;;;33.00;29.58;;;18.40;99.90;;;;;;5061790;28;20194;-77
2023/07/21 17:13:11;;;;;;;13.02;11.15;;;18.30;99.90;;;;;;5074610;28;20537;-76
2023/07/21 17:15:59;;;;;;;13.75;12.45;;;18.20;99.90;;;;;;5074117;28;20181;-80
2023/07/21 17:18:25;;;;;;;13.70;12.15;;;18.00;99.90;;;;;;5074396;28;20260;-77
2023/07/21 17:20:53;;;;;;;11.20;10.00;;;17.80;99.90;;;;;;5076380;28;20239;-87
2023/07/21 17:23:19;;;;;;;11.25;9.98;;;17.80;99.90;;;;;;5074350;28;20539;-77
2023/07/21 17:25:45;;;;;;;11.48;10.30;;;17.70;99.90;;;;;;5072899;28;20202;-86
2023/07/21 17:28:19;;;;;;;13.20;11.48;;;17.80;99.90;;;;;;5074014;28;20185;-77
2023/07/21 17:30:45;;;;;;;21.60;16.25;;;17.80;99.90;;;;;;5073879;28;20171;-77
2023/07/21 17:33:11;;;;;;;14.15;12.68;;;17.70;99.90;;;;;;5074908;28;20260;-76
2023/07/21 17:35:40;;;;;;;9.20;6.93;;;17.80;99.90;;;;;;5073925;28;20260;-76
2023/07/21 17:38:05;;;;;;;13.43;10.45;;;17.70;99.90;;;;;;5073806;28;20628;-76
2023/07/21 17:40:31;;;;;;;8.40;7.35;;;17.70;99.90;;;;;;5073462;28;20215;-76
2023/07/21 17:42:56;;;;;;;5.03;4.10;;;17.80;99.90;;;;;;5072952;28;20207;-76
2023/07/21 17:45:23;;;;;;;4.75;4.20;;;17.60;99.90;;;;;;5073571;28;20170;-76
2023/07/21 17:47:48;;;;;;;5.65;4.35;;;17.50;99.90;;;;;;5072492;28;20196;-76
2023/07/21 17:50:14;;;;;;;4.50;4.10;;;17.50;99.90;;;;;;5072476;28;20178;-76
2023/07/21 17:52:40;;;;;;;3.22;3.03;;;17.30;99.90;;;;;;5073171;28;20178;-76
2023/07/21 17:55:06;;;;;;;5.28;3.22;;;17.30;99.90;;;;;;5073607;28;20627;-76
2023/07/21 17:57:32;;;;;;;3.13;2.72;;;17.30;99.90;;;;;;5073384;28;20202;-76
2023/07/21 17:59:57;;;;;;;3.08;2.78;;;17.20;99.90;;;;;;5074455;28;20626;-76
2023/07/21 18:02:23;;;;;;;2.83;2.63;;;17.30;99.90;;;;;;5073142;28;20201;-76
2023/07/21 18:04:48;;;;;;;3.75;2.72;;;17.20;99.90;;;;;;5073409;28;20295;-76
2023/07/21 18:07:14;;;;;;;3.10;2.83;;;17.30;99.90;;;;;;5073181;28;20197;-76
2023/07/21 18:09:40;;;;;;;2.80;2.60;;;17.40;99.90;;;;;;5073397;28;20201;-76
2023/07/21 18:12:06;;;;;;;2.65;2.35;;;17.40;99.90;;;;;;5074355;28;20543;-76
2023/07/21 18:14:33;;;;;;;4.00;2.72;;;17.50;99.90;;;;;;5073026;28;20608;-76
2023/07/21 18:16:58;;;;;;;3.45;2.75;;;17.60;99.90;;;;;;5074133;28;20271;-76
2023/07/21 18:19:24;;;;;;;3.17;2.65;;;17.50;99.90;;;;;;5073831;28;20301;-76
2023/07/21 18:21:49;;;;;;;5.25;3.13;;;17.50;99.90;;;;;;5072858;28;20203;-76
2023/07/21 18:24:15;;;;;;;3.53;2.45;;;17.60;99.90;;;;;;5074232;28;20170;-76
2023/07/21 18:26:41;;;;;;;5.63;2.60;;;17.50;99.90;;;;;;5072675;28;20200;-76
2023/07/21 18:29:06;;;;;;;2.70;2.50;;;17.50;99.90;;;;;;5073616;28;20205;-76
2023/07/21 18:31:32;;;;;;;4.75;2.45;;;17.40;99.90;;;;;;5072629;28;20256;-76
2023/07/21 18:33:59;;;;;;;4.50;2.55;;;17.40;99.90;;;;;;5072617;28;20178;-76
2023/07/21 18:36:25;;;;;;;5.95;2.60;;;17.30;99.90;;;;;;5072612;28;20750;-76
2023/07/21 18:38:51;;;;;;;3.80;2.67;;;17.20;99.90;;;;;;5073769;28;20264;-76
2023/07/21 18:41:19;;;;;;;2.95;2.67;;;17.10;99.90;;;;;;5073333;28;20191;-76
2023/07/21 18:43:45;;;;;;;4.03;2.63;;;17.10;99.90;;;;;;5072408;28;20178;-76
2023/07/21 18:46:11;;;;;;;4.13;2.72;;;17.00;99.90;;;;;;5072400;28;20324;-76
2023/07/21 18:48:36;;;;;;;8.70;3.10;;;16.80;99.90;;;;;;5072440;28;20196;-76
2023/07/21 18:51:02;;;;;;;7.05;2.92;;;16.60;99.90;;;;;;5072786;28;20217;-76
2023/07/21 18:53:27;;;;;;;3.35;2.90;;;16.50;99.90;;;;;;5073903;28;20173;-76
2023/07/21 18:55:53;;;;;;;6.57;2.70;;;16.40;99.90;;;;;;5072582;28;20194;-76
2023/07/21 18:58:19;;;;;;;6.65;3.20;;;16.30;99.90;;;;;;5072358;28;20181;-76
2023/07/21 19:00:45;;;;;;;5.15;3.05;;;16.20;99.90;;;;;;5072180;28;20197;-76
2023/07/21 19:03:11;;;;;;;5.50;2.75;;;16.10;99.90;;;;;;5072343;28;20196;-76
2023/07/21 19:05:40;;;;;;;5.18;2.95;;;16.00;99.90;;;;;;5072725;28;20181;-76
2023/07/21 19:08:06;;;;;;;2.70;2.53;;;15.80;99.90;;;;;;5072147;28;20200;-76
2023/07/21 19:10:31;;;;;;;6.80;2.90;;;15.80;99.90;;;;;;5072480;28;20651;-76
2023/07/21 19:12:58;;;;;;;7.93;2.85;;;15.70;99.90;;;;;;5072201;28;20248;-76
2023/07/21 19:15:23;;;;;;;3.65;2.80;;;15.60;99.90;;;;;;5073400;28;20220;-76
2023/07/21 19:17:49;;;;;;;5.55;3.00;;;15.40;99.90;;;;;;5073025;28;20224;-76
2023/07/21 19:20:15;;;;;;;3.70;2.88;;;15.40;99.90;;;;;;5071978;28;20204;-76
2023/07/21 19:22:40;;;;;;;7.15;3.00;;;15.30;99.90;;;;;;5073257;28;20223;-76
2023/07/21 19:25:10;;;;;;;6.40;3.45;;;15.20;99.90;;;;;;5072103;28;20181;-76
2023/07/21 19:27:38;;;;;;;4.53;3.17;;;15.10;99.90;;;;;;5071923;28;20215;-76
2023/07/21 19:30:07;;;;;;;5.95;3.45;;;15.10;99.90;;;;;;5072836;28;20181;-76
2023/07/21 19:32:32;;;;;;;6.13;3.30;;;15.00;99.90;;;;;;5072231;28;20185;-76
2023/07/21 19:34:58;;;;;;;7.82;3.60;;;15.00;99.90;;;;;;5072002;28;20178;-76
2023/07/21 19:37:23;;;;;;;9.05;3.13;;;15.00;99.90;;;;;;5073387;28;20201;-76
2023/07/21 19:39:49;;;;;;;6.85;3.35;;;15.00;99.90;;;;;;5071835;28;20770;-76
2023/07/21 19:42:15;;;;;;;4.93;3.20;;;15.00;99.90;;;;;;5073149;28;20207;-76
2023/07/21 19:44:41;;;;;;;6.13;3.65;;;15.00;99.90;;;;;;5072187;28;20205;-76
2023/07/21 19:47:06;;;;;;;5.35;3.15;;;15.00;99.90;;;;;;5072043;28;20292;-76
2023/07/21 19:49:32;;;;;;;6.18;3.53;;;15.10;99.90;;;;;;5071821;28;20264;-76
2023/07/21 19:51:59;;;;;;;5.43;3.55;;;15.20;99.90;;;;;;5071794;28;20640;-76
2023/07/21 19:54:25;;;;;;;9.35;3.47;;;15.20;99.90;;;;;;5072953;28;20219;-76
2023/07/21 19:56:51;;;;;;;4.78;3.10;;;15.30;99.90;;;;;;5072828;28;20519;-76
2023/07/21 19:59:17;;;;;;;5.93;3.30;;;15.40;99.90;;;;;;5071987;28;20204;-76
2023/07/21 20:01:43;;;;;;;5.25;3.28;;;15.50;99.90;;;;;;5072934;28;20174;-76
2023/07/21 20:04:09;;;;;;;6.90;3.33;;;15.50;99.90;;;;;;5072566;28;20169;-76
2023/07/21 20:06:35;;;;;;;4.18;2.80;;;15.60;99.90;;;;;;5072402;28;20211;-76
2023/07/21 20:09:01;;;;;;;3.85;2.90;;;15.70;99.90;;;;;;5071618;28;20186;-76
2023/07/21 20:11:26;;;;;;;3.78;2.97;;;15.80;99.90;;;;;;5072872;28;20170;-76